Time;durP1;ratioP1;P1;durP2;ratioP2;P2;SDS_P1;SDS_P2;PMS_P1;PMS_P2;Temp;Humidity;BMP_temperature;BMP_pressure;BME280_temperature;BME280_humidity;BME280_pressure;Samples;Min_cycle;Max_cycle;Signal;HPM_P1;HPM_P2
2023/07/23 00:00:36;;;;;;;5.10;3.20;;;21.50;95.20;;;;;;5036757;28;20220;-33
2023/07/23 00:03:03;;;;;;;6.55;3.28;;;21.50;95.30;;;;;;5034357;28;20745;-33
2023/07/23 00:05:31;;;;;;;9.13;3.42;;;21.50;95.30;;;;;;5041674;28;20224;-33
2023/07/23 00:08:00;;;;;;;5.13;3.40;;;21.50;95.30;;;;;;5041180;28;20221;-33
2023/07/23 00:10:27;;;;;;;4.53;3.20;;;21.40;95.30;;;;;;5047749;28;20196;-33
2023/07/23 00:12:55;;;;;;;6.90;3.40;;;21.40;95.30;;;;;;5044333;28;20213;-33
2023/07/23 00:15:22;;;;;;;5.00;3.33;;;21.40;95.30;;;;;;5027487;28;20683;-33
2023/07/23 00:17:50;;;;;;;4.28;2.78;;;21.40;95.40;;;;;;5029046;28;20296;-25
2023/07/23 00:20:17;;;;;;;8.77;3.88;;;21.40;95.40;;;;;;5044369;28;20690;-25
2023/07/23 00:22:44;;;;;;;5.50;3.38;;;21.30;95.30;;;;;;5034004;28;20271;-26
2023/07/23 00:25:12;;;;;;;4.03;3.33;;;21.30;95.40;;;;;;5028109;28;20212;-33
2023/07/23 00:27:41;;;;;;;4.80;3.40;;;21.20;95.30;;;;;;5027122;28;20752;-33
2023/07/23 00:30:11;;;;;;;5.63;3.47;;;21.30;95.50;;;;;;5028396;28;20209;-33
2023/07/23 00:32:38;;;;;;;4.88;3.35;;;21.20;95.40;;;;;;5027585;28;20746;-33
2023/07/23 00:35:06;;;;;;;6.38;3.63;;;21.20;95.40;;;;;;5040891;28;20271;-33
2023/07/23 00:37:35;;;;;;;5.20;3.10;;;21.20;95.40;;;;;;5045447;28;20207;-33
2023/07/23 00:40:03;;;;;;;6.13;3.15;;;21.20;95.40;;;;;;5043278;28;20232;-33
2023/07/23 00:42:31;;;;;;;4.82;3.38;;;21.10;95.40;;;;;;5034319;28;20922;-33
2023/07/23 00:44:58;;;;;;;5.07;3.42;;;21.10;95.40;;;;;;5039921;28;20225;-33
2023/07/23 00:47:28;;;;;;;5.75;3.08;;;21.10;95.40;;;;;;5044122;28;20674;-33
2023/07/23 00:49:59;;;;;;;4.63;3.20;;;21.10;95.70;;;;;;5031486;28;20236;-33
2023/07/23 00:52:30;;;;;;;5.97;3.47;;;21.00;95.40;;;;;;5047021;28;20223;-33
2023/07/23 00:55:00;;;;;;;5.95;3.40;;;21.00;95.40;;;;;;5042845;28;20306;-33
2023/07/23 00:57:30;;;;;;;5.57;3.67;;;21.00;95.40;;;;;;5028547;28;20564;-33
2023/07/23 00:59:57;;;;;;;5.38;3.03;;;21.00;95.40;;;;;;5027806;28;20209;-33
2023/07/23 01:02:27;;;;;;;5.88;3.13;;;20.90;95.40;;;;;;5031067;28;20223;-33
2023/07/23 01:05:00;;;;;;;4.30;3.15;;;20.90;95.40;;;;;;5034581;28;20201;-33
2023/07/23 01:07:29;;;;;;;7.90;3.38;;;20.90;95.40;;;;;;5037655;28;20274;-33
2023/07/23 01:09:57;;;;;;;5.82;3.28;;;20.90;95.30;;;;;;5044000;28;20212;-33
2023/07/23 01:12:25;;;;;;;4.68;2.90;;;20.90;95.30;;;;;;5045722;28;20320;-33
2023/07/23 01:14:52;;;;;;;4.90;3.15;;;20.90;95.30;;;;;;5040272;28;20254;-33
2023/07/23 01:17:22;;;;;;;4.97;2.88;;;20.90;95.30;;;;;;5034045;28;20568;-33
2023/07/23 01:20:05;;;;;;;5.38;2.55;;;20.90;95.20;;;;;;5037188;28;20211;-33
2023/07/23 01:22:34;;;;;;;4.63;3.00;;;20.90;95.20;;;;;;5041591;28;20234;-33
2023/07/23 01:25:02;;;;;;;3.90;2.70;;;20.90;95.20;;;;;;5046798;28;20578;-33
2023/07/23 01:27:30;;;;;;;3.72;2.95;;;20.90;95.20;;;;;;5027581;28;20216;-33
2023/07/23 01:30:00;;;;;;;7.10;2.95;;;20.90;95.20;;;;;;5027651;28;20197;-33
2023/07/23 01:32:27;;;;;;;3.38;2.90;;;20.90;95.10;;;;;;5025016;28;20288;-33
2023/07/23 01:35:00;;;;;;;4.25;2.70;;;20.80;95.10;;;;;;5027092;28;20217;-33
2023/07/23 01:37:29;;;;;;;4.68;2.92;;;20.90;95.10;;;;;;5027535;28;20584;-33
2023/07/23 01:39:59;;;;;;;5.85;2.70;;;20.90;95.10;;;;;;5025702;28;20244;-33
2023/07/23 01:42:31;;;;;;;4.07;3.00;;;20.80;95.00;;;;;;5027730;28;20209;-33
2023/07/23 01:45:03;;;;;;;4.13;2.55;;;20.80;95.00;;;;;;5031371;28;20762;-33
2023/07/23 01:47:30;;;;;;;4.18;2.80;;;20.80;95.00;;;;;;5025645;28;20208;-34
2023/07/23 01:49:58;;;;;;;4.30;2.80;;;20.80;95.00;;;;;;5028993;28;20290;-33
2023/07/23 01:52:30;;;;;;;5.00;2.78;;;20.80;94.90;;;;;;5024518;28;20223;-33
2023/07/23 01:55:02;;;;;;;3.10;2.80;;;20.80;94.90;;;;;;5026853;28;20196;-33
2023/07/23 01:57:32;;;;;;;5.78;3.20;;;20.80;95.00;;;;;;5026454;28;20319;-33
2023/07/23 02:00:03;;;;;;;3.83;3.00;;;20.80;94.90;;;;;;5027195;28;20250;-33
2023/07/23 02:02:35;;;;;;;6.25;3.30;;;20.80;94.90;;;;;;5028034;28;20208;-26
2023/07/23 02:05:08;;;;;;;4.32;2.85;;;20.80;94.90;;;;;;5031941;28;20228;-26
2023/07/23 02:07:37;;;;;;;4.45;3.17;;;20.80;94.90;;;;;;5044217;28;20311;-25
2023/07/23 02:10:08;;;;;;;6.18;3.20;;;20.80;94.90;;;;;;5028771;28;20313;-25
2023/07/23 02:12:38;;;;;;;5.97;3.03;;;20.80;94.90;;;;;;5024295;28;20201;-26
2023/07/23 02:15:05;;;;;;;3.30;2.72;;;20.90;94.90;;;;;;5024761;28;20610;-26
2023/07/23 02:17:35;;;;;;;5.13;3.05;;;20.90;94.90;;;;;;5026039;28;20584;-25
2023/07/23 02:20:06;;;;;;;3.92;3.28;;;20.80;94.80;;;;;;5024027;28;20196;-25
2023/07/23 02:22:33;;;;;;;4.45;3.10;;;20.90;94.80;;;;;;5031142;28;20204;-25
2023/07/23 02:25:00;;;;;;;5.80;3.17;;;20.90;94.80;;;;;;5028655;28;20545;-25
2023/07/23 02:27:29;;;;;;;4.80;2.95;;;20.90;94.80;;;;;;5025178;28;20209;-26
2023/07/23 02:29:58;;;;;;;4.38;2.92;;;20.90;94.80;;;;;;5026166;28;20706;-25
2023/07/23 02:32:31;;;;;;;7.18;3.17;;;20.90;94.80;;;;;;5028626;28;20274;-25
2023/07/23 02:34:58;;;;;;;3.72;2.95;;;20.90;94.80;;;;;;5025738;28;20193;-26
2023/07/23 02:37:25;;;;;;;6.00;3.15;;;20.80;94.80;;;;;;5024858;28;21206;-25
2023/07/23 02:39:55;;;;;;;3.67;3.15;;;20.80;94.80;;;;;;5025061;28;20324;-25
2023/07/23 02:42:27;;;;;;;3.97;2.80;;;20.80;94.80;;;;;;5026843;28;20197;-25
2023/07/23 02:44:56;;;;;;;4.20;3.20;;;20.80;94.80;;;;;;5029652;28;20686;-26
2023/07/23 02:47:26;;;;;;;4.72;3.20;;;20.80;94.80;;;;;;5042176;28;20628;-25
2023/07/23 02:49:57;;;;;;;5.00;3.22;;;20.80;94.80;;;;;;5043533;28;20811;-25
2023/07/23 02:52:27;;;;;;;3.70;2.88;;;20.80;94.70;;;;;;5033840;28;20224;-25
2023/07/23 02:54:54;;;;;;;5.68;3.03;;;20.80;94.80;;;;;;5024483;28;20227;-25
2023/07/23 02:57:23;;;;;;;4.75;3.22;;;20.80;94.80;;;;;;5026085;28;20298;-25
2023/07/23 02:59:50;;;;;;;3.03;2.70;;;20.80;94.80;;;;;;5025737;28;20394;-25
2023/07/23 03:02:18;;;;;;;3.42;2.70;;;20.80;94.80;;;;;;5024969;28;20734;-33
2023/07/23 03:04:45;;;;;;;3.05;2.60;;;20.80;94.80;;;;;;5025420;28;20230;-33
2023/07/23 03:07:12;;;;;;;5.50;2.80;;;20.70;94.70;;;;;;5029456;28;20205;-33
2023/07/23 03:09:40;;;;;;;5.13;2.95;;;20.70;94.70;;;;;;5044867;28;20258;-33
2023/07/23 03:12:10;;;;;;;4.13;2.85;;;20.70;94.70;;;;;;5045931;28;20219;-33
2023/07/23 03:14:37;;;;;;;4.63;2.65;;;20.70;94.80;;;;;;5032230;28;20259;-33
2023/07/23 03:17:06;;;;;;;3.03;2.70;;;20.70;94.80;;;;;;5027678;28;20336;-33
2023/07/23 03:19:34;;;;;;;4.10;2.53;;;20.70;94.80;;;;;;5037767;28;20261;-33
2023/07/23 03:22:05;;;;;;;3.20;2.60;;;20.70;94.70;;;;;;5043728;28;20759;-33
2023/07/23 03:24:36;;;;;;;4.00;3.00;;;20.70;94.70;;;;;;5028728;28;20312;-26
2023/07/23 03:27:03;;;;;;;4.90;2.85;;;20.70;94.70;;;;;;5025856;28;20231;-25
2023/07/23 03:29:33;;;;;;;4.18;2.63;;;20.70;94.70;;;;;;5028280;28;20217;-25
2023/07/23 03:32:03;;;;;;;5.47;2.65;;;20.70;94.70;;;;;;5025169;28;20224;-26
2023/07/23 03:34:35;;;;;;;2.55;2.35;;;20.70;94.70;;;;;;5028780;28;20219;-25
2023/07/23 03:37:05;;;;;;;4.20;2.95;;;20.70;94.60;;;;;;5045036;28;20210;-25
2023/07/23 03:39:32;;;;;;;3.65;2.75;;;20.70;94.60;;;;;;5028135;28;20246;-25
2023/07/23 03:42:02;;;;;;;4.22;2.85;;;20.70;94.60;;;;;;5029368;28;20240;-25
2023/07/23 03:44:34;;;;;;;3.55;2.65;;;20.70;94.60;;;;;;5029410;28;20326;-25
2023/07/23 03:47:14;;;;;;;3.67;2.63;;;20.70;94.60;;;;;;5029367;28;20235;-25
2023/07/23 03:49:41;;;;;;;3.97;2.83;;;20.70;94.70;;;;;;5037999;28;20209;-25
2023/07/23 03:52:09;;;;;;;4.32;2.50;;;20.70;94.60;;;;;;5028048;28;20201;-26
2023/07/23 03:54:42;;;;;;;2.83;2.53;;;20.70;94.60;;;;;;5037201;28;20224;-25
2023/07/23 03:57:11;;;;;;;3.53;2.40;;;20.70;94.60;;;;;;5029586;28;20201;-25
2023/07/23 03:59:47;;;;;;;7.53;2.40;;;20.70;94.60;;;;;;5027250;28;20270;-26
2023/07/23 04:02:16;;;;;;;4.68;2.50;;;20.70;94.60;;;;;;5033672;28;20279;-25
2023/07/23 04:04:43;;;;;;;2.65;2.30;;;20.70;94.60;;;;;;5029616;28;20656;-25
2023/07/23 04:07:11;;;;;;;2.88;2.65;;;20.70;94.60;;;;;;5045470;28;20204;-25
2023/07/23 04:09:40;;;;;;;2.50;2.28;;;20.70;94.60;;;;;;5041207;28;20255;-25
2023/07/23 04:12:11;;;;;;;4.35;2.60;;;20.70;94.60;;;;;;5029102;28;20209;-25
2023/07/23 04:14:42;;;;;;;4.22;2.60;;;20.70;94.60;;;;;;5039189;28;20531;-25
2023/07/23 04:17:13;;;;;;;4.38;2.70;;;20.70;94.60;;;;;;5048892;28;20346;-25
2023/07/23 04:19:44;;;;;;;5.88;2.47;;;20.80;94.70;;;;;;5042963;28;20300;-25
2023/07/23 04:22:13;;;;;;;5.15;2.30;;;20.70;94.60;;;;;;5031463;28;20698;-33
2023/07/23 04:24:41;;;;;;;5.43;2.28;;;20.80;94.70;;;;;;5040470;28;20256;-33
2023/07/23 04:27:10;;;;;;;4.80;2.47;;;20.80;94.70;;;;;;5027136;28;20201;-33
2023/07/23 04:29:40;;;;;;;3.47;2.58;;;20.80;94.70;;;;;;5027171;28;20294;-33
2023/07/23 04:32:07;;;;;;;2.70;2.05;;;20.80;94.70;;;;;;5043756;28;20197;-33
2023/07/23 04:34:34;;;;;;;2.78;2.13;;;20.80;94.70;;;;;;5039772;28;20204;-33
2023/07/23 04:37:06;;;;;;;3.55;2.22;;;20.80;94.80;;;;;;5026256;28;20205;-33
2023/07/23 04:39:36;;;;;;;2.97;2.20;;;20.80;94.60;;;;;;5035969;28;20223;-33
2023/07/23 04:42:05;;;;;;;3.67;2.20;;;20.80;94.60;;;;;;5036908;28;20236;-33
2023/07/23 04:44:37;;;;;;;2.95;2.60;;;20.80;94.60;;;;;;5030454;28;20232;-33
2023/07/23 04:47:07;;;;;;;3.83;2.30;;;20.80;94.60;;;;;;5041523;28;20292;-33
2023/07/23 04:49:37;;;;;;;4.25;2.60;;;20.80;94.60;;;;;;5035788;28;20224;-33
2023/07/23 04:52:07;;;;;;;4.38;2.72;;;20.80;94.60;;;;;;5040196;28;20201;-33
2023/07/23 04:54:35;;;;;;;4.60;2.47;;;20.80;94.60;;;;;;5031534;28;20197;-32
2023/07/23 04:57:04;;;;;;;3.30;2.38;;;20.80;94.60;;;;;;5044223;28;20200;-33
2023/07/23 04:59:32;;;;;;;3.53;2.88;;;20.80;94.60;;;;;;5040991;28;20329;-33
2023/07/23 05:02:02;;;;;;;3.13;2.40;;;20.90;94.60;;;;;;5033298;28;20204;-33
2023/07/23 05:04:29;;;;;;;4.07;2.30;;;20.80;94.60;;;;;;5027250;28;20709;-33
2023/07/23 05:06:56;;;;;;;3.38;2.60;;;20.80;94.60;;;;;;5035480;28;20763;-33
2023/07/23 05:09:24;;;;;;;4.00;2.90;;;20.90;94.70;;;;;;5046096;28;20273;-33
2023/07/23 05:11:54;;;;;;;4.78;2.95;;;20.80;94.70;;;;;;5042250;28;20204;-33
2023/07/23 05:14:24;;;;;;;3.58;2.63;;;20.90;94.70;;;;;;5047737;28;20212;-33
2023/07/23 05:16:51;;;;;;;3.63;2.90;;;20.80;94.60;;;;;;5036371;28;20229;-33
2023/07/23 05:19:23;;;;;;;7.57;2.70;;;20.80;94.60;;;;;;5039140;28;20223;-33
2023/07/23 05:21:50;;;;;;;3.83;2.88;;;20.80;94.70;;;;;;5035808;28;20559;-33
2023/07/23 05:24:22;;;;;;;3.38;2.70;;;20.80;94.60;;;;;;5040257;28;20680;-33
2023/07/23 05:26:52;;;;;;;4.43;3.15;;;20.80;94.70;;;;;;5040070;28;20728;-33
2023/07/23 05:29:19;;;;;;;2.83;2.58;;;20.90;94.70;;;;;;5045850;28;20215;-33
2023/07/23 05:31:51;;;;;;;3.55;2.85;;;20.90;94.80;;;;;;5045259;28;20227;-33
2023/07/23 05:34:22;;;;;;;4.50;3.15;;;20.90;94.80;;;;;;5045875;28;20270;-33
2023/07/23 05:36:50;;;;;;;3.78;3.25;;;20.80;94.80;;;;;;5030899;28;20291;-33
2023/07/23 05:39:17;;;;;;;4.03;3.63;;;20.90;94.80;;;;;;5029200;28;20244;-33
2023/07/23 05:41:44;;;;;;;5.30;3.80;;;20.80;94.80;;;;;;5027003;28;20216;-33
2023/07/23 05:44:13;;;;;;;5.68;3.70;;;20.80;94.70;;;;;;5025868;28;20561;-33
2023/07/23 05:46:41;;;;;;;6.43;3.85;;;20.80;94.80;;;;;;5027141;28;20732;-33
2023/07/23 05:49:08;;;;;;;4.28;3.78;;;20.90;94.80;;;;;;5039451;28;20567;-33
2023/07/23 05:51:35;;;;;;;6.28;4.20;;;20.90;94.80;;;;;;5045060;28;20204;-33
2023/07/23 05:54:07;;;;;;;4.53;4.13;;;20.90;94.80;;;;;;5046094;28;20204;-33
2023/07/23 05:56:34;;;;;;;4.75;4.20;;;20.90;94.80;;;;;;5047076;28;20227;-33
2023/07/23 05:59:06;;;;;;;5.63;3.92;;;20.80;94.80;;;;;;5032508;28;20216;-33
2023/07/23 06:01:36;;;;;;;6.28;4.25;;;20.90;94.90;;;;;;5042054;28;20227;-33
2023/07/23 06:04:10;;;;;;;6.63;4.18;;;20.90;94.90;;;;;;5039293;28;20642;-33
2023/07/23 06:06:40;;;;;;;7.78;4.13;;;20.90;95.00;;;;;;5026432;28;20216;-33
2023/07/23 06:09:08;;;;;;;6.00;4.57;;;20.80;94.90;;;;;;5024829;28;20228;-33
2023/07/23 06:11:38;;;;;;;7.05;4.45;;;20.90;95.00;;;;;;5026168;28;20662;-33
2023/07/23 06:14:08;;;;;;;6.13;4.40;;;20.90;95.00;;;;;;5040161;28;20251;-33
2023/07/23 06:16:35;;;;;;;4.95;4.22;;;20.90;95.00;;;;;;5043185;28;20200;-33
2023/07/23 06:19:02;;;;;;;7.05;4.15;;;20.90;95.00;;;;;;5046470;28;20262;-33
2023/07/23 06:21:30;;;;;;;5.82;4.32;;;20.80;95.20;;;;;;5034977;28;20243;-33
2023/07/23 06:23:57;;;;;;;5.10;4.05;;;20.80;95.10;;;;;;5039882;28;20216;-33
2023/07/23 06:26:24;;;;;;;4.82;4.03;;;20.80;95.30;;;;;;5029967;28;20204;-33
2023/07/23 06:28:54;;;;;;;5.15;3.78;;;20.80;95.30;;;;;;5028148;28;20211;-33
2023/07/23 06:31:26;;;;;;;5.53;3.85;;;20.80;95.40;;;;;;5043887;28;20215;-33
2023/07/23 06:33:56;;;;;;;4.57;3.65;;;20.80;95.50;;;;;;5035311;28;20634;-33
2023/07/23 06:36:23;;;;;;;5.18;3.70;;;20.80;95.60;;;;;;5025786;28;20636;-33
2023/07/23 06:38:53;;;;;;;4.75;3.50;;;20.80;95.70;;;;;;5041010;28;20798;-33
2023/07/23 06:41:22;;;;;;;4.35;3.60;;;20.80;95.90;;;;;;5025374;28;20238;-33
2023/07/23 06:43:50;;;;;;;6.47;3.78;;;20.70;96.00;;;;;;5026639;28;20316;-33
2023/07/23 06:46:20;;;;;;;4.43;2.90;;;20.70;95.80;;;;;;5024776;28;20201;-33
2023/07/23 06:48:50;;;;;;;4.30;3.28;;;20.70;96.10;;;;;;5026552;28;20209;-33
2023/07/23 06:51:22;;;;;;;4.30;3.33;;;20.70;96.00;;;;;;5033569;28;20215;-33
2023/07/23 06:53:52;;;;;;;4.00;3.05;;;20.60;96.00;;;;;;5024392;28;20550;-33
2023/07/23 06:56:22;;;;;;;4.55;3.40;;;20.60;96.30;;;;;;5031578;28;20346;-33
2023/07/23 06:58:49;;;;;;;4.60;3.33;;;20.60;96.40;;;;;;5042648;28;20216;-33
2023/07/23 07:01:20;;;;;;;4.78;3.40;;;20.50;96.30;;;;;;5040521;28;20200;-33
2023/07/23 07:03:50;;;;;;;4.30;3.13;;;20.50;96.50;;;;;;5026172;28;20208;-33
2023/07/23 07:06:17;;;;;;;4.78;3.60;;;20.50;96.50;;;;;;5025894;28;20274;-33
2023/07/23 07:08:45;;;;;;;4.78;3.45;;;20.50;96.60;;;;;;5023044;28;20287;-33
2023/07/23 07:11:15;;;;;;;3.95;3.42;;;20.50;96.90;;;;;;5032725;28;20623;-33
2023/07/23 07:13:45;;;;;;;4.70;3.58;;;20.40;96.80;;;;;;5026337;28;20216;-33
2023/07/23 07:16:13;;;;;;;4.40;3.30;;;20.40;97.00;;;;;;5037188;28;20208;-33
2023/07/23 07:18:42;;;;;;;3.50;3.20;;;20.40;96.80;;;;;;5044214;28;20294;-33
2023/07/23 07:21:12;;;;;;;5.22;3.03;;;20.40;97.10;;;;;;5040260;28;20200;-33
2023/07/23 07:23:39;;;;;;;3.58;3.22;;;20.30;96.90;;;;;;5025856;28;20213;-33
2023/07/23 07:26:06;;;;;;;3.83;3.30;;;20.30;97.10;;;;;;5039432;28;21217;-33
2023/07/23 07:28:35;;;;;;;3.15;2.85;;;20.30;97.10;;;;;;5040281;28;20216;-33
2023/07/23 07:31:10;;;;;;;3.63;3.08;;;20.30;97.20;;;;;;5036350;28;20200;-33
2023/07/23 07:33:39;;;;;;;4.43;3.38;;;20.30;97.50;;;;;;5045764;28;20326;-33
2023/07/23 07:36:07;;;;;;;3.88;3.30;;;20.30;97.30;;;;;;5043667;28;20231;-31
2023/07/23 07:38:34;;;;;;;4.32;3.47;;;20.30;97.30;;;;;;5030713;28;20240;-33
2023/07/23 07:41:03;;;;;;;4.00;2.97;;;20.30;97.40;;;;;;5033818;28;20212;-25
2023/07/23 07:43:31;;;;;;;3.50;3.08;;;20.30;97.60;;;;;;5024906;28;20208;-25
2023/07/23 07:46:05;;;;;;;4.22;3.33;;;20.20;97.50;;;;;;5039403;28;20967;-25
2023/07/23 07:48:37;;;;;;;3.55;3.25;;;20.20;97.90;;;;;;5040802;28;20235;-25
2023/07/23 07:51:12;;;;;;;3.80;2.90;;;20.20;97.80;;;;;;5041218;28;20219;-26
2023/07/23 07:53:44;;;;;;;3.15;2.75;;;20.20;97.90;;;;;;5037801;28;20216;-26
2023/07/23 07:56:17;;;;;;;4.03;3.10;;;20.20;97.80;;;;;;5039595;28;20226;-25
2023/07/23 07:58:47;;;;;;;4.18;3.22;;;20.20;97.80;;;;;;5045213;28;20220;-25
2023/07/23 08:01:15;;;;;;;3.35;3.05;;;20.10;97.90;;;;;;5043531;28;21069;-26
2023/07/23 08:03:42;;;;;;;4.38;3.75;;;20.10;97.80;;;;;;5033654;28;20213;-25
2023/07/23 08:06:13;;;;;;;4.63;3.53;;;20.10;98.20;;;;;;5042883;28;20247;-26
2023/07/23 08:08:42;;;;;;;3.38;3.08;;;20.10;98.10;;;;;;5042008;28;20733;-25
2023/07/23 08:11:13;;;;;;;3.80;3.40;;;20.10;98.10;;;;;;5045070;28;20804;-26
2023/07/23 08:13:41;;;;;;;5.07;3.42;;;20.10;98.20;;;;;;5027863;28;20201;-26
2023/07/23 08:16:17;;;;;;;3.92;3.10;;;20.10;98.20;;;;;;5037825;28;20224;-26
2023/07/23 08:18:44;;;;;;;4.15;2.88;;;20.20;98.40;;;;;;5029016;28;20208;-25
2023/07/23 08:21:12;;;;;;;4.10;3.25;;;20.20;98.30;;;;;;5041189;28;20240;-33
2023/07/23 08:23:40;;;;;;;3.88;2.70;;;20.20;98.30;;;;;;5037032;28;20902;-34
2023/07/23 08:26:14;;;;;;;3.08;2.67;;;20.30;98.40;;;;;;5046787;28;20262;-33
2023/07/23 08:28:51;;;;;;;3.10;2.80;;;20.30;98.90;;;;;;5044250;28;20196;-33
2023/07/23 08:31:21;;;;;;;3.28;2.97;;;20.40;98.70;;;;;;5046972;28;20289;-33
2023/07/23 08:33:55;;;;;;;3.55;2.50;;;20.40;98.70;;;;;;5037760;28;20209;-33
2023/07/23 08:36:28;;;;;;;2.75;2.55;;;20.50;98.70;;;;;;5046134;28;20203;-33
2023/07/23 08:38:55;;;;;;;2.63;2.42;;;20.50;99.00;;;;;;5037027;28;20237;-33
2023/07/23 08:42:09;;;;;;;4.72;2.53;;;20.50;98.90;;;;;;5026560;28;20317;-33
2023/07/23 08:45:24;;;;;;;2.95;2.42;;;20.50;99.00;;;;;;5027055;28;20224;-33
2023/07/23 08:48:17;;;;;;;2.38;2.17;;;20.60;99.10;;;;;;5031487;28;20760;-33
2023/07/23 08:50:50;;;;;;;2.85;1.92;;;20.60;99.10;;;;;;5039489;28;20200;-33
2023/07/23 08:53:20;;;;;;;2.90;2.03;;;20.60;99.20;;;;;;5035589;28;20207;-32
2023/07/23 08:55:47;;;;;;;2.00;1.80;;;20.70;99.20;;;;;;5043380;28;20212;-32
2023/07/23 08:58:16;;;;;;;2.47;1.98;;;20.70;99.50;;;;;;5042051;28;20740;-32
2023/07/23 09:00:47;;;;;;;1.73;1.63;;;20.70;99.40;;;;;;5032219;28;20200;-32
2023/07/23 09:03:20;;;;;;;2.10;1.90;;;20.80;99.60;;;;;;5040988;28;20728;-33
2023/07/23 09:05:49;;;;;;;3.42;1.80;;;20.80;99.60;;;;;;5027585;28;20232;-32
2023/07/23 09:08:16;;;;;;;2.25;2.05;;;20.80;99.60;;;;;;5043931;28;20600;-25
2023/07/23 09:10:46;;;;;;;2.00;1.80;;;20.80;99.70;;;;;;5046467;28;20199;-24
2023/07/23 09:13:16;;;;;;;1.50;1.40;;;20.90;99.80;;;;;;5040746;28;20208;-25
2023/07/23 09:15:55;;;;;;;2.40;1.80;;;20.90;99.80;;;;;;5040318;28;20250;-25
2023/07/23 09:18:30;;;;;;;2.40;1.85;;;20.90;99.90;;;;;;5034394;28;20312;-25
2023/07/23 09:20:58;;;;;;;1.98;1.70;;;20.90;99.90;;;;;;5028816;28;20235;-24
2023/07/23 09:23:26;;;;;;;2.33;1.50;;;20.90;99.90;;;;;;5042850;28;20637;-24
2023/07/23 09:25:56;;;;;;;1.67;1.58;;;21.00;99.90;;;;;;5033933;28;20602;-24
2023/07/23 09:28:24;;;;;;;1.85;1.70;;;21.00;99.90;;;;;;5044125;28;20611;-25
2023/07/23 09:30:57;;;;;;;1.92;1.70;;;21.00;99.90;;;;;;5041806;28;20629;-25
2023/07/23 09:33:36;;;;;;;2.03;1.77;;;21.00;99.90;;;;;;5027363;28;20213;-25
2023/07/23 09:36:09;;;;;;;1.50;1.40;;;21.00;99.90;;;;;;5028016;28;20282;-25
2023/07/23 09:38:54;;;;;;;1.80;1.70;;;21.00;99.90;;;;;;5027223;28;20294;-25
2023/07/23 09:41:23;;;;;;;1.88;1.60;;;21.00;99.90;;;;;;5025606;28;20220;-24
2023/07/23 09:43:51;;;;;;;2.45;2.03;;;21.00;99.90;;;;;;5035780;28;20712;-24
2023/07/23 09:46:19;;;;;;;2.20;1.95;;;21.00;99.90;;;;;;5038501;28;20229;-25
2023/07/23 09:48:48;;;;;;;2.25;1.92;;;21.00;99.90;;;;;;5045901;28;20713;-24
2023/07/23 09:51:15;;;;;;;2.40;2.20;;;21.00;99.90;;;;;;5044977;28;20204;-24
2023/07/23 09:53:45;;;;;;;3.20;2.17;;;21.00;99.90;;;;;;5042675;28;20266;-24
2023/07/23 09:56:17;;;;;;;2.67;2.17;;;21.00;99.90;;;;;;5025722;28;20674;-24
2023/07/23 09:58:48;;;;;;;2.40;2.17;;;21.00;99.90;;;;;;5027429;28;20204;-25
2023/07/23 10:01:20;;;;;;;2.72;2.38;;;21.10;99.90;;;;;;5046408;28;20204;-24
2023/07/23 10:03:50;;;;;;;4.47;2.17;;;21.00;99.90;;;;;;5045473;28;20231;-25
2023/07/23 10:06:21;;;;;;;3.13;2.30;;;21.10;99.90;;;;;;5027272;28;20242;-24
2023/07/23 10:08:49;;;;;;;2.38;2.17;;;21.10;99.90;;;;;;5041960;28;20343;-25
2023/07/23 10:11:19;;;;;;;3.92;2.97;;;21.20;99.90;;;;;;5045128;28;20285;-25
2023/07/23 10:13:51;;;;;;;3.78;3.03;;;21.20;99.90;;;;;;5041241;28;20211;-33
2023/07/23 10:16:21;;;;;;;2.47;2.28;;;21.30;99.90;;;;;;5039220;28;20204;-33
2023/07/23 10:18:51;;;;;;;3.30;2.80;;;21.30;99.90;;;;;;5026843;28;20204;-33
2023/07/23 10:21:21;;;;;;;3.63;2.53;;;21.30;99.90;;;;;;5024434;28;20216;-33
2023/07/23 10:23:57;;;;;;;3.00;2.63;;;21.40;99.90;;;;;;5026830;28;20271;-33
2023/07/23 10:26:29;;;;;;;3.58;2.50;;;21.40;99.90;;;;;;5039210;28;20223;-33
2023/07/23 10:29:14;;;;;;;3.03;2.60;;;21.50;99.90;;;;;;5035811;28;20310;-33
2023/07/23 10:31:47;;;;;;;4.15;2.85;;;21.60;99.90;;;;;;5026164;28;20712;-33
2023/07/23 10:34:26;;;;;;;3.55;2.80;;;21.60;99.90;;;;;;5025591;28;20201;-34
2023/07/23 10:37:21;;;;;;;4.32;2.40;;;21.70;99.90;;;;;;5043223;28;20567;-33
2023/07/23 10:39:52;;;;;;;3.20;2.90;;;21.80;99.90;;;;;;5041067;28;20306;-33
2023/07/23 10:42:33;;;;;;;3.17;2.85;;;21.90;99.90;;;;;;5038193;28;20204;-33
2023/07/23 10:45:24;;;;;;;3.15;2.85;;;22.00;99.90;;;;;;5032101;28;20216;-34
2023/07/23 10:47:58;;;;;;;3.25;2.70;;;22.20;99.90;;;;;;5042559;28;20300;-33
2023/07/23 10:50:29;;;;;;;2.78;2.58;;;22.20;99.90;;;;;;5043256;28;20203;-33
2023/07/23 10:53:04;;;;;;;3.17;2.83;;;22.30;99.90;;;;;;5046101;28;20226;-33
2023/07/23 10:55:51;;;;;;;4.97;3.08;;;22.40;99.90;;;;;;5039866;28;20204;-33
2023/07/23 10:58:20;;;;;;;6.10;3.17;;;22.40;99.90;;;;;;5041665;28;20257;-33
2023/07/23 11:00:52;;;;;;;3.75;2.70;;;22.50;99.90;;;;;;5028693;28;20640;-33
2023/07/23 11:03:23;;;;;;;3.33;2.92;;;22.50;99.90;;;;;;5025681;28;20213;-34
2023/07/23 11:05:53;;;;;;;4.60;3.10;;;22.60;99.90;;;;;;5032864;28;20228;-34
2023/07/23 11:08:26;;;;;;;4.93;2.88;;;22.70;99.90;;;;;;5042085;28;20423;-33
2023/07/23 11:10:59;;;;;;;7.25;3.38;;;22.80;99.90;;;;;;5042608;28;20198;-33
2023/07/23 11:13:32;;;;;;;3.15;2.75;;;22.90;99.90;;;;;;5042154;28;20204;-25
2023/07/23 11:16:05;;;;;;;5.07;3.05;;;23.00;99.90;;;;;;5041637;28;20216;-25
2023/07/23 11:18:32;;;;;;;3.33;3.03;;;23.10;99.90;;;;;;5043089;28;20215;-25
2023/07/23 11:21:07;;;;;;;3.85;3.13;;;23.20;99.90;;;;;;5036390;28;20674;-25
2023/07/23 11:23:38;;;;;;;3.60;2.65;;;23.20;99.90;;;;;;5039119;28;20305;-25
2023/07/23 11:26:08;;;;;;;3.03;2.83;;;23.30;99.90;;;;;;5039517;28;20219;-25
2023/07/23 11:28:38;;;;;;;2.90;2.60;;;23.30;99.90;;;;;;5028144;28;20209;-25
2023/07/23 11:31:07;;;;;;;3.10;2.80;;;23.40;99.90;;;;;;5024238;28;20638;-25
2023/07/23 11:33:39;;;;;;;5.43;3.20;;;23.50;99.90;;;;;;5027489;28;20654;-25
2023/07/23 11:36:09;;;;;;;4.80;3.40;;;23.60;99.90;;;;;;5027140;28;20300;-25
2023/07/23 11:38:40;;;;;;;6.50;3.08;;;23.60;99.90;;;;;;5040237;28;20609;-25
2023/07/23 11:41:07;;;;;;;3.85;3.22;;;23.70;99.90;;;;;;5041338;28;20212;-25
2023/07/23 11:43:38;;;;;;;5.15;3.40;;;23.70;99.90;;;;;;5046447;28;20204;-25
2023/07/23 11:46:05;;;;;;;4.32;2.92;;;23.70;99.90;;;;;;5041638;28;20239;-25
2023/07/23 11:48:32;;;;;;;3.28;2.92;;;23.80;99.90;;;;;;5045931;28;20593;-25
2023/07/23 11:51:02;;;;;;;3.53;3.22;;;23.80;99.90;;;;;;5043554;28;20206;-25
2023/07/23 11:53:34;;;;;;;4.15;3.20;;;23.90;99.90;;;;;;5044255;28;20200;-25
2023/07/23 11:56:08;;;;;;;3.75;3.22;;;23.90;99.90;;;;;;5032654;28;20724;-25
2023/07/23 11:58:37;;;;;;;4.70;3.28;;;23.90;99.90;;;;;;5044788;28;20477;-25
2023/07/23 12:01:09;;;;;;;4.95;3.40;;;23.90;99.90;;;;;;5039847;28;20201;-26
2023/07/23 12:03:44;;;;;;;3.88;3.28;;;24.00;99.90;;;;;;5029278;28;20204;-25
2023/07/23 12:06:15;;;;;;;3.50;3.20;;;24.00;99.90;;;;;;5028453;28;20263;-25
2023/07/23 12:08:51;;;;;;;4.28;3.35;;;24.00;99.90;;;;;;5027751;28;20712;-26
2023/07/23 12:11:26;;;;;;;4.30;3.08;;;24.10;99.90;;;;;;5029178;28;20215;-25
2023/07/23 12:13:59;;;;;;;3.50;3.20;;;24.10;99.90;;;;;;5029215;28;20197;-25
2023/07/23 12:16:37;;;;;;;4.35;3.50;;;24.20;99.90;;;;;;5040508;28;20220;-25
2023/07/23 12:19:13;;;;;;;3.47;3.17;;;24.20;99.90;;;;;;5047834;28;20196;-25
2023/07/23 12:21:48;;;;;;;4.78;3.05;;;24.20;99.90;;;;;;5035735;28;20303;-25
2023/07/23 12:24:18;;;;;;;3.38;3.03;;;24.30;99.90;;;;;;5035314;28;20265;-25
2023/07/23 12:26:50;;;;;;;3.00;2.70;;;24.40;99.90;;;;;;5035967;28;20223;-25
2023/07/23 12:29:21;;;;;;;3.85;2.97;;;24.40;99.90;;;;;;5029632;28;20201;-25
2023/07/23 12:32:10;;;;;;;4.07;3.25;;;24.50;99.90;;;;;;5031860;28;20215;-25
2023/07/23 12:34:42;;;;;;;3.20;2.90;;;24.70;99.90;;;;;;5047681;28;20614;-25
2023/07/23 12:37:09;;;;;;;3.50;3.08;;;24.70;99.90;;;;;;5045319;28;20311;-25
2023/07/23 12:39:39;;;;;;;3.05;2.75;;;24.80;99.90;;;;;;5036480;28;20331;-25
2023/07/23 12:42:06;;;;;;;3.55;2.72;;;24.80;99.90;;;;;;5030413;28;20267;-25
2023/07/23 12:44:38;;;;;;;3.53;3.20;;;24.90;99.90;;;;;;5037743;28;20298;-25
2023/07/23 12:47:05;;;;;;;3.00;2.70;;;24.90;99.90;;;;;;5027389;28;20225;-25
2023/07/23 12:49:32;;;;;;;3.85;3.10;;;24.90;99.90;;;;;;5026310;28;20193;-25
2023/07/23 12:52:03;;;;;;;3.13;2.83;;;25.00;99.90;;;;;;5035535;28;20638;-25
2023/07/23 12:54:30;;;;;;;4.10;2.97;;;25.10;99.90;;;;;;5044850;28;20250;-25
2023/07/23 12:56:57;;;;;;;3.20;2.80;;;25.10;99.90;;;;;;5042491;28;20212;-25
2023/07/23 12:59:28;;;;;;;3.85;2.97;;;25.20;99.90;;;;;;5036749;28;20231;-25
2023/07/23 13:01:57;;;;;;;4.05;2.90;;;25.20;99.90;;;;;;5035397;28;20228;-25
2023/07/23 13:04:27;;;;;;;3.85;3.10;;;25.30;99.90;;;;;;5048056;28;20212;-25